Time;durP1;ratioP1;P1;durP2;ratioP2;P2;SDS_P1;SDS_P2;PMS_P1;PMS_P2;Temp;Humidity;BMP_temperature;BMP_pressure;BME280_temperature;BME280_humidity;BME280_pressure;Samples;Min_cycle;Max_cycle;Signal;HPM_P1;HPM_P2
2022/12/25 00:02:19;;;;;;;58.00;15.98;;;4.70;99.90;;;;;;4980534;28;20064;-74
2022/12/25 00:04:45;;;;;;;55.35;16.65;;;4.50;99.90;;;;;;4974182;28;20078;-74
2022/12/25 00:07:13;;;;;;;50.45;16.20;;;4.60;99.90;;;;;;4978179;28;20436;-74
2022/12/25 00:09:39;;;;;;;58.85;16.50;;;4.60;99.90;;;;;;4974599;28;20050;-73
2022/12/25 00:12:06;;;;;;;56.90;18.00;;;4.50;99.90;;;;;;4961387;28;20129;-74
2022/12/25 00:14:33;;;;;;;61.20;18.92;;;4.30;99.90;;;;;;4976481;28;20134;-74
2022/12/25 00:16:59;;;;;;;55.92;18.48;;;4.20;99.90;;;;;;4977620;28;20030;-74
2022/12/25 00:19:26;;;;;;;61.65;17.25;;;4.10;99.90;;;;;;4976942;28;20546;-74
2022/12/25 00:21:53;;;;;;;88.55;25.77;;;4.00;99.90;;;;;;4980911;28;20544;-74
2022/12/25 00:24:19;;;;;;;66.00;20.08;;;4.00;99.90;;;;;;4978753;28;20068;-75
2022/12/25 00:26:46;;;;;;;71.43;22.73;;;4.10;99.90;;;;;;4979430;28;20709;-74
2022/12/25 00:29:13;;;;;;;85.57;22.38;;;4.30;99.90;;;;;;5004444;28;20038;-74
2022/12/25 00:31:40;;;;;;;84.82;22.35;;;4.30;99.90;;;;;;5001288;28;20050;-74
2022/12/25 00:34:06;;;;;;;83.85;22.63;;;4.30;99.90;;;;;;4983520;28;20081;-73
2022/12/25 00:36:33;;;;;;;90.78;24.02;;;4.30;99.90;;;;;;4976905;28;20532;-74
2022/12/25 00:39:07;;;;;;;75.43;21.10;;;4.30;99.90;;;;;;4998214;28;20153;-73
2022/12/25 00:44:19;;;;;;;;;;;4.30;99.90;;;;;;4978260;28;20132;-73
2022/12/25 00:46:46;;;;;;;70.65;19.52;;;4.30;99.90;;;;;;5001635;28;19926;-74
2022/12/25 00:49:13;;;;;;;66.22;18.80;;;4.10;99.90;;;;;;4978353;28;20137;-74
2022/12/25 00:51:39;;;;;;;69.60;18.42;;;4.10;99.90;;;;;;4969208;28;20060;-74
2022/12/25 00:54:07;;;;;;;62.90;17.27;;;4.10;99.90;;;;;;5002885;28;20046;-74
2022/12/25 00:56:34;;;;;;;688.20;84.00;;;3.90;99.90;;;;;;5006187;28;20038;-73
2022/12/25 00:59:00;;;;;;;75.93;21.20;;;3.70;99.90;;;;;;4974936;28;20046;-74
2022/12/25 01:01:27;;;;;;;60.33;17.83;;;3.40;99.90;;;;;;4974483;28;20034;-74
2022/12/25 01:03:54;;;;;;;57.35;16.38;;;3.40;99.90;;;;;;4978436;28;20081;-74
2022/12/25 01:06:21;;;;;;;63.90;19.05;;;3.30;99.90;;;;;;4974675;28;20039;-73
2022/12/25 01:11:33;;;;;;;63.35;18.35;;;3.00;99.90;;;;;;4972156;28;20042;-74
2022/12/25 01:13:59;;;;;;;56.20;18.30;;;2.90;99.90;;;;;;4971472;28;20050;-78
2022/12/25 01:16:26;;;;;;;50.17;16.50;;;2.80;99.90;;;;;;4975935;28;20058;-74
2022/12/25 01:18:54;;;;;;;58.50;19.38;;;2.70;99.90;;;;;;4973775;28;20121;-74
2022/12/25 01:21:21;;;;;;;53.22;18.10;;;2.60;99.90;;;;;;4975154;28;20037;-73
2022/12/25 01:23:51;;;;;;;88.13;20.98;;;2.60;99.90;;;;;;4973754;28;20424;-74
2022/12/25 01:26:20;;;;;;;57.83;18.80;;;2.60;99.90;;;;;;4977926;28;20054;-74
2022/12/25 01:28:49;;;;;;;59.15;20.45;;;2.60;99.90;;;;;;4974204;28;20046;-73
2022/12/25 01:31:18;;;;;;;67.88;22.55;;;2.50;99.90;;;;;;4966509;28;20628;-74
2022/12/25 01:33:46;;;;;;;67.85;22.85;;;2.50;99.90;;;;;;4973661;28;20038;-75
2022/12/25 01:36:15;;;;;;;64.30;22.52;;;2.50;99.90;;;;;;4975581;28;20081;-73
2022/12/25 01:38:43;;;;;;;84.78;24.02;;;2.60;99.90;;;;;;4974649;28;20685;-73
2022/12/25 01:41:11;;;;;;;63.40;24.13;;;2.40;99.90;;;;;;4959613;28;20087;-73
2022/12/25 01:44:06;;;;;;;68.20;23.98;;;2.40;99.90;;;;;;4975210;28;20464;-73
2022/12/25 01:46:34;;;;;;;78.07;24.73;;;2.40;99.90;;;;;;4971587;28;20073;-73
2022/12/25 01:49:14;;;;;;;79.85;25.15;;;2.40;99.90;;;;;;4972523;28;20125;-74
2022/12/25 01:51:46;;;;;;;59.22;21.45;;;2.40;99.90;;;;;;4972470;28;20146;-73
2022/12/25 01:54:21;;;;;;;67.72;22.77;;;2.30;99.90;;;;;;4976044;28;20030;-73
2022/12/25 01:56:50;;;;;;;67.35;21.67;;;2.20;99.90;;;;;;4970800;28;20062;-73
2022/12/25 01:59:20;;;;;;;71.60;23.30;;;2.20;99.90;;;;;;4972999;28;20042;-73
2022/12/25 02:01:47;;;;;;;59.08;22.60;;;2.20;99.90;;;;;;4986176;28;20062;-73
2022/12/25 02:04:37;;;;;;;65.80;20.67;;;2.20;99.90;;;;;;4975870;28;20461;-72
2022/12/25 02:07:14;;;;;;;88.60;22.90;;;2.30;99.90;;;;;;4974004;28;20050;-72
2022/12/25 02:09:43;;;;;;;85.82;22.67;;;2.50;99.90;;;;;;4972844;28;20050;-72
2022/12/25 02:12:22;;;;;;;93.32;21.98;;;2.50;99.90;;;;;;4983945;28;20049;-73
2022/12/25 02:14:51;;;;;;;86.85;20.80;;;2.50;99.90;;;;;;4971269;28;20072;-73
2022/12/25 02:17:20;;;;;;;63.90;20.42;;;2.50;99.90;;;;;;4975759;28;20046;-73
2022/12/25 02:20:09;;;;;;;76.22;19.67;;;2.50;99.90;;;;;;4999589;28;20047;-73
2022/12/25 02:22:54;;;;;;;62.80;18.15;;;2.40;99.90;;;;;;4973283;28;20210;-73
2022/12/25 02:26:02;;;;;;;133.52;24.95;;;2.40;99.90;;;;;;4981768;28;20050;-73
2022/12/25 02:29:04;;;;;;;53.47;19.50;;;2.20;99.90;;;;;;4968814;28;20046;-73
2022/12/25 02:31:40;;;;;;;69.15;19.83;;;2.30;99.90;;;;;;4946807;28;20073;-73
2022/12/25 02:34:16;;;;;;;61.33;18.58;;;2.30;99.90;;;;;;4996318;28;20487;-73
2022/12/25 02:37:14;;;;;;;55.03;18.85;;;2.30;99.90;;;;;;5025157;28;20682;-73
2022/12/25 02:39:58;;;;;;;57.63;20.27;;;2.30;99.90;;;;;;4980734;28;20163;-73
2022/12/25 03:07:41;;;;;;;51.22;15.85;;;2.90;99.90;;;;;;4997398;28;20041;-72
2022/12/25 03:13:07;;;;;;;37.10;15.20;;;2.90;99.90;;;;;;4995669;28;20042;-73
2022/12/25 03:18:23;;;;;;;39.53;15.43;;;3.20;99.90;;;;;;4996437;28;20034;-72
2022/12/25 03:32:37;;;;;;;35.95;13.48;;;3.40;99.90;;;;;;5011303;28;20048;-72
2022/12/25 03:35:24;;;;;;;42.90;14.60;;;3.60;99.90;;;;;;4996227;28;20512;-72
2022/12/25 04:37:32;;;;;;;;;;;5.50;99.90;;;;;;4994521;28;20050;-72
2022/12/25 04:39:59;;;;;;;41.40;15.60;;;5.40;99.90;;;;;;4995390;28;20399;-72
2022/12/25 04:42:26;;;;;;;55.08;18.00;;;5.50;99.90;;;;;;4998535;28;20038;-72
2022/12/25 04:44:52;;;;;;;45.13;16.88;;;5.60;99.90;;;;;;4991427;28;20587;-72
2022/12/25 04:47:19;;;;;;;41.00;16.40;;;5.70;99.90;;;;;;4992015;28;20046;-73
2022/12/25 04:49:46;;;;;;;44.22;15.93;;;5.80;99.90;;;;;;4993475;28;20064;-73
2022/12/25 04:52:13;;;;;;;45.63;17.25;;;6.00;99.90;;;;;;4991818;28;20061;-73
2022/12/25 04:54:39;;;;;;;40.05;17.05;;;6.20;99.90;;;;;;4995553;28;20575;-73
2022/12/25 04:57:06;;;;;;;37.53;14.55;;;6.20;99.90;;;;;;4995036;28;20053;-73
2022/12/25 04:59:33;;;;;;;49.75;18.02;;;6.20;99.90;;;;;;4993444;28;20533;-73
2022/12/25 05:01:59;;;;;;;50.28;19.10;;;6.30;99.90;;;;;;4993386;28;20046;-73
2022/12/25 05:04:26;;;;;;;43.25;18.13;;;6.20;99.90;;;;;;4993339;28;20042;-73
2022/12/25 05:06:53;;;;;;;60.25;21.30;;;6.30;99.90;;;;;;5001730;28;20044;-73
2022/12/25 05:09:20;;;;;;;49.15;17.00;;;6.30;99.90;;;;;;4995051;28;20392;-72
2022/12/25 05:11:47;;;;;;;46.45;17.95;;;6.30;99.90;;;;;;4994454;28;20052;-72
2022/12/25 05:14:14;;;;;;;52.50;19.25;;;6.20;99.90;;;;;;4993828;28;21386;-72
2022/12/25 05:16:41;;;;;;;45.75;18.30;;;6.40;99.90;;;;;;4994795;28;20046;-72
2022/12/25 05:19:07;;;;;;;48.20;18.95;;;6.30;99.90;;;;;;4994368;28;20326;-72
2022/12/25 05:21:34;;;;;;;57.35;18.40;;;6.30;99.90;;;;;;4995462;28;20404;-72
2022/12/25 05:24:01;;;;;;;45.92;17.27;;;6.40;99.90;;;;;;4997970;28;20163;-73
2022/12/25 05:26:27;;;;;;;43.72;16.63;;;6.40;99.90;;;;;;4996227;28;20045;-73
2022/12/25 05:28:54;;;;;;;55.53;17.38;;;6.50;99.90;;;;;;4991400;28;20227;-72
2022/12/25 05:31:21;;;;;;;47.67;17.45;;;6.60;99.90;;;;;;4992241;28;20041;-73
2022/12/25 05:33:50;;;;;;;50.60;18.17;;;6.60;99.90;;;;;;4994454;28;20763;-73
2022/12/25 05:36:17;;;;;;;44.50;16.45;;;6.60;99.90;;;;;;4991688;28;20042;-72
2022/12/25 05:38:44;;;;;;;48.80;16.45;;;6.60;99.90;;;;;;4993958;28;20046;-72
2022/12/25 05:41:11;;;;;;;51.58;17.67;;;6.70;99.90;;;;;;4993328;28;20042;-73
2022/12/25 05:43:37;;;;;;;40.20;17.40;;;6.60;99.90;;;;;;4994254;28;20518;-73
2022/12/25 05:46:09;;;;;;;56.20;20.92;;;6.60;99.90;;;;;;5013013;28;20045;-72
2022/12/25 05:48:37;;;;;;;50.00;18.98;;;6.70;99.90;;;;;;5018313;28;20110;-72
2022/12/25 05:51:05;;;;;;;42.42;16.80;;;6.60;99.90;;;;;;5016204;28;20039;-72
2022/12/25 05:53:32;;;;;;;52.13;22.23;;;6.50;99.90;;;;;;5000682;28;20393;-72
2022/12/25 05:56:02;;;;;;;60.45;22.40;;;6.60;99.90;;;;;;4992983;28;20045;-72
2022/12/25 05:58:29;;;;;;;48.70;19.00;;;6.60;99.90;;;;;;4992715;28;20415;-72
2022/12/25 06:00:57;;;;;;;49.13;18.77;;;6.70;99.90;;;;;;4992086;28;20071;-72
2022/12/25 06:03:24;;;;;;;47.58;18.58;;;6.60;99.90;;;;;;4992620;28;20042;-73
2022/12/25 06:05:51;;;;;;;43.45;17.17;;;6.60;99.90;;;;;;4992827;28;20131;-72
2022/12/25 06:08:18;;;;;;;43.17;16.95;;;6.70;99.90;;;;;;4994151;28;20125;-72
2022/12/25 06:10:45;;;;;;;28.75;13.88;;;6.80;99.90;;;;;;4996399;28;20041;-72
2022/12/25 06:13:12;;;;;;;35.50;16.00;;;6.70;99.90;;;;;;4992411;28;20077;-72
2022/12/25 06:15:40;;;;;;;48.70;17.58;;;6.70;99.90;;;;;;4991998;28;20038;-72
2022/12/25 06:18:07;;;;;;;42.78;18.42;;;6.70;99.90;;;;;;4992023;28;20161;-72
2022/12/25 06:20:34;;;;;;;43.58;18.40;;;6.60;99.90;;;;;;4994460;28;20034;-72
2022/12/25 06:23:01;;;;;;;36.85;15.07;;;6.60;99.90;;;;;;4994536;28;20049;-72
2022/12/25 06:25:27;;;;;;;32.92;15.52;;;6.70;99.90;;;;;;4986204;28;20042;-72
2022/12/25 06:27:54;;;;;;;38.17;15.30;;;6.70;99.90;;;;;;4993197;28;20069;-72
2022/12/25 06:30:21;;;;;;;35.08;14.60;;;6.70;99.90;;;;;;4991379;28;20053;-72
2022/12/25 06:32:48;;;;;;;34.60;14.73;;;6.70;99.90;;;;;;4992222;28;20062;-72
2022/12/25 06:35:14;;;;;;;37.75;16.17;;;6.80;99.90;;;;;;4973066;28;20046;-72
2022/12/25 06:37:41;;;;;;;38.78;14.93;;;6.90;99.90;;;;;;4991427;28;20867;-72
2022/12/25 06:40:08;;;;;;;35.85;15.88;;;6.80;99.90;;;;;;4993229;28;20053;-73
2022/12/25 06:42:34;;;;;;;42.20;15.98;;;6.80;99.90;;;;;;4992291;28;20408;-73
2022/12/25 06:45:01;;;;;;;37.60;17.13;;;6.70;99.90;;;;;;4991570;28;20050;-72
2022/12/25 06:47:28;;;;;;;40.63;17.25;;;6.70;99.90;;;;;;4995570;28;20456;-73
2022/12/25 06:49:54;;;;;;;46.65;17.70;;;6.70;99.90;;;;;;4996526;28;20037;-72
2022/12/25 06:52:21;;;;;;;48.63;17.13;;;6.80;99.90;;;;;;4991075;28;20038;-73
2022/12/25 06:54:48;;;;;;;44.50;17.52;;;6.80;99.90;;;;;;5015196;28;20061;-72
2022/12/25 06:57:14;;;;;;;44.40;17.92;;;6.70;99.90;;;;;;4993188;28;20748;-73
2022/12/25 06:59:41;;;;;;;45.58;17.67;;;6.80;99.90;;;;;;4991895;28;20049;-73
2022/12/25 07:02:16;;;;;;;43.25;17.75;;;6.80;99.90;;;;;;4992000;28;20062;-73
2022/12/25 07:04:44;;;;;;;53.15;18.00;;;6.70;99.90;;;;;;4994529;28;20100;-73
2022/12/25 07:07:11;;;;;;;44.33;18.33;;;6.70;99.90;;;;;;4993910;28;20046;-72
2022/12/25 07:09:38;;;;;;;42.55;17.40;;;6.80;99.90;;;;;;4994994;28;20042;-73
2022/12/25 07:12:12;;;;;;;41.97;18.83;;;6.80;99.90;;;;;;4989237;28;20050;-72
2022/12/25 07:14:39;;;;;;;43.70;17.87;;;6.80;99.90;;;;;;4991209;28;20053;-73
2022/12/25 07:17:06;;;;;;;43.00;17.92;;;6.90;99.90;;;;;;4992126;28;20038;-73
2022/12/25 07:19:32;;;;;;;53.50;19.95;;;6.90;99.90;;;;;;4989098;28;20213;-73
2022/12/25 07:22:02;;;;;;;54.78;19.70;;;6.90;99.90;;;;;;4989913;28;20037;-73
2022/12/25 07:24:29;;;;;;;42.85;19.02;;;7.00;99.90;;;;;;4993143;28;20137;-73
2022/12/25 07:26:56;;;;;;;56.33;21.75;;;7.00;99.90;;;;;;4991930;28;20041;-73
2022/12/25 07:29:22;;;;;;;50.97;19.98;;;7.00;99.90;;;;;;4991669;28;20057;-73
2022/12/25 07:31:49;;;;;;;49.60;19.52;;;7.10;99.90;;;;;;4991047;28;20534;-73
2022/12/25 07:34:16;;;;;;;53.88;21.20;;;7.10;99.90;;;;;;4988503;28;20514;-73
2022/12/25 07:36:43;;;;;;;46.25;21.13;;;7.20;99.90;;;;;;4990623;28;20662;-73
2022/12/25 07:39:10;;;;;;;46.03;21.67;;;7.20;99.90;;;;;;4992769;28;20045;-73
2022/12/25 07:41:37;;;;;;;50.92;19.48;;;7.30;99.90;;;;;;4992042;28;20076;-73
2022/12/25 07:44:14;;;;;;;44.75;20.58;;;7.30;99.90;;;;;;4989331;28;20041;-73
2022/12/25 07:46:41;;;;;;;43.42;20.15;;;7.30;99.90;;;;;;5017251;28;20045;-72
2022/12/25 07:49:08;;;;;;;38.25;20.00;;;7.30;99.90;;;;;;4978201;28;20046;-73
2022/12/25 07:51:34;;;;;;;39.88;19.30;;;7.30;99.90;;;;;;4994742;28;20080;-73
2022/12/25 07:54:01;;;;;;;39.63;19.35;;;7.40;99.90;;;;;;4997417;28;20053;-73
2022/12/25 07:56:28;;;;;;;33.83;17.75;;;7.40;99.90;;;;;;4992674;28;20121;-73
2022/12/25 07:58:54;;;;;;;31.25;17.20;;;7.40;99.90;;;;;;4996038;28;20042;-73
2022/12/25 08:01:23;;;;;;;37.70;18.70;;;7.50;99.90;;;;;;4992712;28;20046;-73
2022/12/25 08:03:56;;;;;;;33.75;16.60;;;7.50;99.90;;;;;;5011586;28;20053;-73
2022/12/25 08:06:28;;;;;;;30.35;16.83;;;7.50;99.90;;;;;;4993083;28;20157;-73
2022/12/25 08:09:22;;;;;;;36.15;17.10;;;7.60;99.90;;;;;;4995535;28;20034;-73
2022/12/25 08:11:48;;;;;;;26.15;14.13;;;7.70;99.90;;;;;;4993297;28;20045;-73
2022/12/25 08:14:15;;;;;;;32.90;16.75;;;7.70;99.90;;;;;;4992794;28;20050;-72
2022/12/25 08:16:42;;;;;;;30.67;16.25;;;7.70;99.90;;;;;;4992980;28;21065;-73
2022/12/25 08:19:09;;;;;;;31.50;16.83;;;7.80;99.90;;;;;;4995426;28;20416;-73
2022/12/25 08:21:37;;;;;;;21.95;12.57;;;7.80;99.90;;;;;;4995056;28;20513;-74
2022/12/25 08:24:04;;;;;;;35.55;16.70;;;7.80;99.90;;;;;;4998260;28;20042;-73
2022/12/25 08:26:31;;;;;;;30.77;15.98;;;7.80;99.90;;;;;;4993055;28;20120;-73
2022/12/25 08:28:58;;;;;;;32.17;16.63;;;7.80;99.90;;;;;;4974592;28;20046;-73
2022/12/25 08:31:29;;;;;;;34.80;19.58;;;7.80;99.90;;;;;;4991366;28;20083;-73
2022/12/25 08:33:57;;;;;;;27.85;16.63;;;7.90;99.90;;;;;;4993856;28;20492;-73
2022/12/25 08:36:24;;;;;;;33.47;14.45;;;7.80;99.90;;;;;;4991702;28;20042;-73
2022/12/25 08:38:51;;;;;;;32.30;16.33;;;7.80;99.90;;;;;;4992766;28;20247;-73
2022/12/25 08:41:25;;;;;;;36.00;17.55;;;7.80;99.90;;;;;;4993279;28;20049;-73
2022/12/25 08:43:52;;;;;;;37.45;17.83;;;7.90;99.90;;;;;;4995487;28;20599;-73
2022/12/25 08:46:19;;;;;;;36.78;17.77;;;7.80;99.90;;;;;;4995053;28;20542;-73
2022/12/25 08:48:47;;;;;;;34.03;18.35;;;7.90;99.90;;;;;;4996158;28;20133;-73
2022/12/25 08:51:17;;;;;;;29.98;17.45;;;7.90;99.90;;;;;;4993312;28;20046;-73
2022/12/25 08:53:45;;;;;;;32.55;18.67;;;8.00;99.90;;;;;;4994802;28;20037;-74
2022/12/25 08:56:12;;;;;;;31.95;18.08;;;8.00;99.90;;;;;;5013227;23;20049;-73
2022/12/25 08:58:39;;;;;;;34.05;17.83;;;8.10;99.90;;;;;;4986933;28;20042;-73
2022/12/25 09:01:06;;;;;;;30.10;18.60;;;8.10;99.90;;;;;;4971451;28;20045;-73
2022/12/25 09:03:33;;;;;;;29.08;16.58;;;8.20;99.90;;;;;;4979800;28;20056;-73
2022/12/25 09:06:08;;;;;;;32.35;21.17;;;8.20;99.90;;;;;;4992432;28;20048;-73
2022/12/25 09:08:35;;;;;;;70.85;40.63;;;8.30;99.90;;;;;;4982872;28;20392;-74
2022/12/25 09:11:12;;;;;;;55.97;30.35;;;8.40;99.90;;;;;;4987087;28;20041;-73
2022/12/25 09:13:39;;;;;;;49.58;27.10;;;8.40;99.90;;;;;;4984703;28;20118;-73
2022/12/25 09:16:11;;;;;;;40.05;22.42;;;8.50;99.90;;;;;;4990230;28;20042;-73
2022/12/25 09:18:38;;;;;;;43.40;25.75;;;8.50;99.90;;;;;;4988855;28;20049;-73
2022/12/25 09:21:09;;;;;;;28.67;17.40;;;8.50;99.90;;;;;;4988848;28;20042;-73
2022/12/25 09:23:36;;;;;;;24.75;13.75;;;8.50;99.90;;;;;;4968761;28;20034;-73
2022/12/25 09:26:04;;;;;;;27.48;14.43;;;8.40;99.90;;;;;;4970522;28;20041;-73
2022/12/25 09:28:32;;;;;;;30.48;16.73;;;8.50;99.90;;;;;;4980310;28;20524;-73
2022/12/25 09:30:59;;;;;;;25.17;12.57;;;8.50;99.90;;;;;;4980634;28;20045;-73
2022/12/25 09:33:26;;;;;;;48.47;24.55;;;8.40;99.90;;;;;;4987221;28;20057;-73
2022/12/25 09:35:55;;;;;;;20.83;14.02;;;8.50;99.90;;;;;;4980580;28;20041;-73
2022/12/25 09:38:22;;;;;;;21.38;14.10;;;8.50;99.90;;;;;;4987200;28;20073;-74
2022/12/25 09:41:11;;;;;;;21.42;13.63;;;8.50;99.90;;;;;;4984874;28;20042;-73
2022/12/25 09:43:44;;;;;;;24.25;14.30;;;8.50;99.90;;;;;;4987427;28;20046;-73
2022/12/25 09:46:18;;;;;;;22.98;16.05;;;8.50;99.90;;;;;;4986328;28;20117;-74
2022/12/25 09:48:57;;;;;;;25.67;16.45;;;8.50;99.90;;;;;;4987604;28;20042;-73
2022/12/25 09:51:28;;;;;;;28.27;15.98;;;8.50;99.90;;;;;;4985072;28;20058;-73
2022/12/25 09:54:01;;;;;;;25.80;15.68;;;8.50;99.90;;;;;;4989213;28;20056;-73
2022/12/25 09:56:28;;;;;;;27.48;16.05;;;8.50;99.90;;;;;;4984730;28;20037;-73
2022/12/25 09:58:55;;;;;;;24.63;16.23;;;8.50;99.90;;;;;;4985786;28;20096;-74
2022/12/25 10:01:39;;;;;;;30.65;17.58;;;8.50;99.90;;;;;;4984283;28;20537;-72
2022/12/25 10:04:21;;;;;;;25.50;17.60;;;8.50;99.90;;;;;;4980266;28;20061;-72
2022/12/25 10:07:13;;;;;;;30.17;17.00;;;8.40;99.90;;;;;;4980503;28;20054;-72
2022/12/25 10:09:48;;;;;;;31.75;17.42;;;8.40;99.90;;;;;;4986660;28;20050;-72
2022/12/25 10:12:35;;;;;;;26.02;14.80;;;8.50;99.90;;;;;;4986516;28;20049;-72
2022/12/25 10:15:25;;;;;;;24.58;13.70;;;8.50;99.90;;;;;;4988543;28;20129;-72
2022/12/25 10:18:06;;;;;;;22.02;15.43;;;8.60;99.90;;;;;;4984361;28;20444;-72
2022/12/25 10:20:47;;;;;;;28.10;16.45;;;8.60;99.90;;;;;;4981317;28;20531;-72
2022/12/25 10:23:18;;;;;;;23.08;16.00;;;8.60;99.90;;;;;;4983749;28;20061;-75
2022/12/25 10:25:46;;;;;;;23.67;15.85;;;8.60;99.90;;;;;;4984531;28;20039;-75
2022/12/25 10:28:27;;;;;;;23.15;14.68;;;8.60;99.90;;;;;;4984481;28;20042;-74
2022/12/25 10:30:57;;;;;;;25.33;15.52;;;8.60;99.90;;;;;;4964582;28;20044;-74
2022/12/25 10:33:24;;;;;;;23.52;13.43;;;8.60;99.90;;;;;;4984532;28;20131;-74
2022/12/25 10:35:51;;;;;;;21.30;13.73;;;8.60;99.90;;;;;;4960174;28;20073;-75
2022/12/25 10:38:18;;;;;;;35.35;23.88;;;8.60;99.90;;;;;;4969503;28;20054;-75
2022/12/25 10:41:33;;;;;;;26.30;16.00;;;8.60;99.90;;;;;;4959295;28;20081;-75
2022/12/25 10:44:10;;;;;;;17.58;12.15;;;8.60;99.90;;;;;;4973593;28;20043;-74
2022/12/25 10:46:37;;;;;;;16.35;11.27;;;8.60;99.90;;;;;;4965969;28;20050;-75
2022/12/25 10:49:04;;;;;;;16.95;10.93;;;8.60;99.90;;;;;;4970946;28;20527;-75
2022/12/25 10:51:36;;;;;;;15.52;9.95;;;8.60;99.90;;;;;;4949119;28;20521;-75
2022/12/25 10:54:26;;;;;;;19.02;11.23;;;8.60;99.90;;;;;;4958517;28;20105;-75
2022/12/25 10:56:57;;;;;;;13.52;9.25;;;8.60;99.90;;;;;;4952376;28;20042;-75
2022/12/25 10:59:26;;;;;;;17.80;11.70;;;8.60;99.90;;;;;;4954377;28;20138;-76
2022/12/25 11:01:54;;;;;;;14.88;9.88;;;8.70;99.90;;;;;;4960140;28;20106;-75
2022/12/25 11:04:27;;;;;;;13.65;10.10;;;8.60;99.90;;;;;;4954498;28;20257;-75
2022/12/25 11:07:03;;;;;;;19.00;12.50;;;8.60;99.90;;;;;;4952239;28;20069;-76
2022/12/25 11:09:30;;;;;;;14.35;10.20;;;8.60;99.90;;;;;;4958545;28;20134;-76
2022/12/25 11:11:58;;;;;;;15.48;11.48;;;8.60;99.90;;;;;;4960293;28;20094;-76
2022/12/25 11:14:27;;;;;;;15.45;9.88;;;8.70;99.90;;;;;;4951908;28;20386;-76
2022/12/25 11:16:54;;;;;;;13.23;9.68;;;8.60;99.90;;;;;;4962207;28;20039;-76
2022/12/25 11:19:26;;;;;;;18.95;8.68;;;8.60;99.90;;;;;;4958925;28;20504;-76
2022/12/25 11:21:56;;;;;;;14.50;8.90;;;8.60;99.90;;;;;;4965661;28;20046;-76
2022/12/25 11:24:27;;;;;;;14.82;10.73;;;8.60;99.90;;;;;;4968548;28;20043;-75
2022/12/25 11:26:59;;;;;;;15.38;10.38;;;8.60;99.90;;;;;;4987864;28;20161;-76
2022/12/25 11:29:46;;;;;;;20.88;13.63;;;8.60;99.90;;;;;;4967904;28;20278;-75
2022/12/25 11:32:30;;;;;;;16.02;9.65;;;8.70;99.90;;;;;;4966485;28;20174;-76
2022/12/25 11:34:58;;;;;;;11.73;7.75;;;8.70;99.90;;;;;;4960803;28;20042;-76
2022/12/25 11:37:47;;;;;;;11.65;7.10;;;8.80;99.90;;;;;;4967966;28;20484;-76
2022/12/25 11:40:17;;;;;;;11.15;7.90;;;8.70;99.90;;;;;;4957511;28;20035;-77
2022/12/25 11:42:48;;;;;;;17.67;9.77;;;8.70;99.90;;;;;;4970317;28;20137;-76
2022/12/25 11:45:30;;;;;;;14.60;9.95;;;8.70;99.90;;;;;;4971466;28;20432;-76
2022/12/25 11:48:25;;;;;;;25.42;15.18;;;8.70;99.90;;;;;;4956607;28;20476;-76
2022/12/25 11:50:55;;;;;;;18.63;12.88;;;8.80;99.90;;;;;;4966765;28;20153;-76
2022/12/25 11:53:30;;;;;;;11.57;10.35;;;8.80;99.90;;;;;;4961687;28;20097;-75
2022/12/25 11:56:01;;;;;;;14.07;9.15;;;8.70;99.90;;;;;;4959950;28;20049;-76
2022/12/25 11:58:34;;;;;;;10.93;8.65;;;8.70;99.90;;;;;;4970415;28;20042;-76
2022/12/25 12:01:22;;;;;;;13.90;11.68;;;8.70;99.90;;;;;;4956950;28;20126;-76
2022/12/25 12:03:49;;;;;;;13.38;11.52;;;8.80;99.90;;;;;;4961862;28;20047;-75
2022/12/25 12:06:55;;;;;;;13.23;9.90;;;8.80;99.90;;;;;;4973904;28;20042;-75
2022/12/25 12:09:40;;;;;;;14.88;9.90;;;8.80;99.90;;;;;;4926072;28;20050;-76
2022/12/25 12:12:21;;;;;;;20.90;14.90;;;8.80;99.90;;;;;;4962663;28;20042;-75
2022/12/25 12:15:17;;;;;;;14.80;9.27;;;8.90;99.90;;;;;;4964170;28;20051;-76
2022/12/25 12:17:44;;;;;;;15.15;9.43;;;8.80;99.90;;;;;;4968577;28;20078;-76
2022/12/25 12:20:22;;;;;;;15.75;11.73;;;8.80;99.90;;;;;;4965264;28;20511;-76
2022/12/25 12:22:50;;;;;;;15.90;12.75;;;8.80;99.90;;;;;;4968242;28;20051;-75
2022/12/25 12:25:17;;;;;;;11.43;8.32;;;8.80;99.90;;;;;;4972264;28;20547;-76
2022/12/25 12:27:44;;;;;;;12.63;9.25;;;8.80;99.90;;;;;;4969168;28;20056;-76
2022/12/25 12:30:33;;;;;;;17.25;12.15;;;8.90;99.90;;;;;;4964005;28;20046;-76
2022/12/25 12:33:04;;;;;;;14.38;12.88;;;8.80;99.90;;;;;;4956709;28;20065;-76
2022/12/25 12:35:33;;;;;;;20.58;12.30;;;8.80;99.90;;;;;;4966210;28;20396;-76
2022/12/25 12:38:21;;;;;;;13.63;10.18;;;8.90;99.90;;;;;;4972259;28;20038;-76
2022/12/25 12:41:03;;;;;;;16.20;13.48;;;8.90;99.90;;;;;;4968994;28;20121;-76
2022/12/25 12:43:40;;;;;;;15.32;12.68;;;8.80;99.90;;;;;;4966366;28;20120;-76
2022/12/25 12:46:26;;;;;;;11.82;8.38;;;8.90;99.90;;;;;;4967836;28;20054;-76
2022/12/25 12:49:19;;;;;;;14.07;8.82;;;8.90;99.90;;;;;;4972259;28;20452;-76
2022/12/25 12:51:46;;;;;;;11.48;7.75;;;8.80;99.90;;;;;;4946725;28;20501;-76
2022/12/25 12:54:22;;;;;;;12.48;9.05;;;8.80;99.90;;;;;;4971582;28;20100;-76
2022/12/25 12:56:58;;;;;;;14.63;9.18;;;8.80;99.90;;;;;;4963758;28;20110;-76
2022/12/25 12:59:32;;;;;;;14.40;9.40;;;8.90;99.90;;;;;;4960550;28;20046;-76
2022/12/25 13:02:23;;;;;;;14.02;9.85;;;8.90;99.90;;;;;;4962910;28;20052;-76
2022/12/25 13:05:18;;;;;;;16.08;11.85;;;8.90;99.90;;;;;;4966019;28;20058;-75
2022/12/25 13:07:52;;;;;;;18.90;11.13;;;8.80;99.90;;;;;;4937446;28;20238;-76
2022/12/25 13:10:35;;;;;;;16.70;11.55;;;8.80;99.90;;;;;;4960221;28;20053;-76
2022/12/25 13:13:19;;;;;;;16.85;11.88;;;8.80;99.90;;;;;;4957796;28;20046;-76
2022/12/25 13:15:48;;;;;;;16.25;10.73;;;8.80;99.90;;;;;;4954762;28;20163;-76
2022/12/25 13:18:15;;;;;;;16.15;10.48;;;8.70;99.90;;;;;;4970829;28;20070;-76
2022/12/25 13:20:54;;;;;;;15.50;10.88;;;8.80;99.90;;;;;;4955931;28;20061;-75
2022/12/25 13:23:26;;;;;;;16.02;10.50;;;8.80;99.90;;;;;;4964919;28;20125;-76
2022/12/25 13:26:00;;;;;;;14.07;10.18;;;8.70;99.90;;;;;;4953001;28;20468;-75
2022/12/25 13:28:36;;;;;;;15.65;10.43;;;8.80;99.90;;;;;;4959001;28;20049;-76
2022/12/25 13:31:11;;;;;;;16.67;10.35;;;8.80;99.90;;;;;;4954952;28;20103;-76
2022/12/25 13:33:40;;;;;;;20.40;13.23;;;8.70;99.90;;;;;;4956190;28;20417;-76
2022/12/25 13:36:12;;;;;;;19.73;13.88;;;8.70;99.90;;;;;;4968217;28;20411;-76
2022/12/25 13:38:47;;;;;;;18.92;12.80;;;8.80;99.90;;;;;;4960299;28;20057;-76
2022/12/25 13:44:19;;;;;;;20.45;13.25;;;8.70;99.90;;;;;;4951504;28;20061;-76
2022/12/25 13:46:46;;;;;;;13.70;9.65;;;8.70;99.90;;;;;;4947567;28;20138;-76
2022/12/25 13:49:19;;;;;;;18.25;13.27;;;8.80;99.90;;;;;;4963899;28;20046;-76
2022/12/25 13:51:48;;;;;;;18.80;13.75;;;8.70;99.90;;;;;;4957370;28;20403;-76
2022/12/25 13:54:16;;;;;;;13.82;10.50;;;8.80;99.90;;;;;;4964204;28;20048;-76
2022/12/25 13:56:50;;;;;;;20.23;12.95;;;8.80;99.90;;;;;;4963843;28;20410;-76
2022/12/25 13:59:20;;;;;;;18.08;12.02;;;8.80;99.90;;;;;;4965274;28;20049;-76
2022/12/25 14:01:49;;;;;;;15.57;10.32;;;8.80;99.90;;;;;;4960656;28;20054;-76
2022/12/25 14:04:22;;;;;;;16.33;11.95;;;8.80;99.90;;;;;;4964825;28;20488;-75
2022/12/25 14:06:51;;;;;;;18.15;12.25;;;8.90;99.90;;;;;;4948602;28;20355;-76
2022/12/25 14:09:18;;;;;;;20.42;11.77;;;8.90;99.90;;;;;;4955842;28;20050;-75
2022/12/25 14:11:49;;;;;;;16.08;11.25;;;8.90;99.90;;;;;;4963208;28;20798;-76
2022/12/25 14:14:22;;;;;;;26.45;17.35;;;8.90;99.90;;;;;;4966665;28;20050;-76
2022/12/25 14:16:52;;;;;;;11.20;9.07;;;9.00;99.90;;;;;;4963251;28;20653;-75
2022/12/25 14:19:27;;;;;;;13.05;10.57;;;9.00;99.90;;;;;;4962059;28;20050;-76
2022/12/25 14:22:01;;;;;;;24.50;15.57;;;9.00;99.90;;;;;;4964893;28;20093;-76
2022/12/25 14:24:29;;;;;;;;;;;9.00;99.90;;;;;;4953914;28;20070;-76
2022/12/25 14:27:02;;;;;;;14.50;8.52;;;9.00;99.90;;;;;;4951640;28;19926;-76
2022/12/25 14:29:36;;;;;;;13.10;7.70;;;9.00;99.90;;;;;;4947225;28;20557;-75
2022/12/25 14:32:13;;;;;;;13.07;7.82;;;9.00;99.90;;;;;;4955987;28;20070;-76
2022/12/25 14:34:42;;;;;;;14.48;9.27;;;9.10;99.90;;;;;;4960895;28;20038;-76
2022/12/25 14:37:19;;;;;;;13.95;8.98;;;9.10;99.90;;;;;;4969946;28;20050;-76
2022/12/25 14:39:55;;;;;;;14.95;10.55;;;9.10;99.90;;;;;;4961918;28;20133;-76
2022/12/25 14:42:27;;;;;;;66.80;31.92;;;9.10;99.90;;;;;;4950557;28;20465;-75
2022/12/25 14:45:00;;;;;;;106.22;43.75;;;9.10;99.90;;;;;;4965194;28;20134;-76
2022/12/25 14:47:28;;;;;;;27.58;15.15;;;9.10;99.90;;;;;;4968100;28;20217;-76
2022/12/25 14:49:55;;;;;;;25.60;13.40;;;9.20;99.90;;;;;;4959222;28;20050;-76
2022/12/25 14:52:26;;;;;;;24.30;13.27;;;9.20;99.90;;;;;;4970447;28;20050;-75